createdAt,value
2018-09-12T00:00:26.411Z,6.00
2018-09-12T00:02:54.836Z,6.60
2018-09-12T00:05:23.268Z,7.20
2018-09-12T00:07:51.755Z,5.97
2018-09-12T00:10:20.256Z,6.73
2018-09-12T00:12:48.709Z,7.17
2018-09-12T00:15:17.133Z,8.37
2018-09-12T00:17:45.632Z,6.90
2018-09-12T00:20:14.035Z,7.83
2018-09-12T00:22:42.472Z,8.57
2018-09-12T00:25:11.020Z,5.73
2018-09-12T00:27:39.516Z,9.73
2018-09-12T00:30:08.070Z,6.77
2018-09-12T00:32:36.655Z,9.63
2018-09-12T00:35:05.298Z,6.67
2018-09-12T00:37:33.978Z,6.53
2018-09-12T00:40:02.632Z,5.80
2018-09-12T00:42:31.142Z,6.10
2018-09-12T00:44:59.619Z,7.80
2018-09-12T00:47:28.063Z,7.40
2018-09-12T00:49:56.526Z,6.43
2018-09-12T00:52:25.101Z,7.30
2018-09-12T00:54:53.542Z,8.43
2018-09-12T00:57:22.075Z,8.33
2018-09-12T00:59:50.625Z,6.33
2018-09-12T01:02:19.278Z,6.37
2018-09-12T01:04:47.776Z,6.33
2018-09-12T01:07:16.328Z,7.47
2018-09-12T01:09:44.950Z,7.30
2018-09-12T01:12:13.758Z,6.47
2018-09-12T01:14:42.428Z,7.47
2018-09-12T01:17:10.869Z,5.77
2018-09-12T01:19:39.308Z,5.67
2018-09-12T01:22:07.798Z,6.90
2018-09-12T01:24:36.317Z,6.63
2018-09-12T01:27:04.756Z,5.67
2018-09-12T01:29:33.321Z,5.20
2018-09-12T01:32:01.899Z,6.20
2018-09-12T01:34:30.584Z,6.93
2018-09-12T01:36:59.163Z,4.97
2018-09-12T01:39:28.060Z,7.33
2018-09-12T01:41:56.685Z,7.27
2018-09-12T01:44:25.215Z,7.90
2018-09-12T01:46:54.277Z,7.43
2018-09-12T01:49:22.727Z,7.77
2018-09-12T01:51:51.521Z,9.03
2018-09-12T01:54:20.129Z,7.13
2018-09-12T01:56:48.575Z,6.20
2018-09-12T01:59:17.078Z,6.50
2018-09-12T02:01:45.960Z,9.27
2018-09-12T02:04:14.503Z,7.63
2018-09-12T02:06:43.043Z,9.07
2018-09-12T02:09:14.089Z,8.80
2018-09-12T02:11:42.711Z,7.83
2018-09-12T02:14:11.196Z,8.17
2018-09-12T02:16:39.645Z,7.23
2018-09-12T02:19:08.095Z,8.60
2018-09-12T02:21:36.524Z,6.87
2018-09-12T02:24:04.956Z,8.03
2018-09-12T02:26:33.449Z,6.30
2018-09-12T02:29:01.916Z,7.57
2018-09-12T02:31:30.373Z,12.50
2018-09-12T02:33:58.928Z,9.97
2018-09-12T02:36:28.824Z,17.93
2018-09-12T02:38:58.796Z,16.00
2018-09-12T02:41:27.273Z,8.50
2018-09-12T02:43:56.024Z,9.60
2018-09-12T02:46:24.536Z,8.07
2018-09-12T02:48:53.573Z,12.27
2018-09-12T02:51:22.012Z,14.83
2018-09-12T02:53:50.564Z,9.40
2018-09-12T02:56:19.308Z,9.23
2018-09-12T02:58:48.313Z,19.47
2018-09-12T03:01:16.711Z,10.37
2018-09-12T03:03:45.108Z,7.53
2018-09-12T03:06:13.513Z,33.57
2018-09-12T03:08:41.944Z,17.87
2018-09-12T03:11:10.413Z,12.73
2018-09-12T03:13:38.852Z,8.03
2018-09-12T03:16:07.317Z,6.67
2018-09-12T03:18:35.830Z,7.77
2018-09-12T03:21:04.383Z,8.03
2018-09-12T03:23:32.657Z,9.43
2018-09-12T03:26:01.082Z,8.00
2018-09-12T03:28:29.526Z,7.77
2018-09-12T03:30:57.941Z,7.43
2018-09-12T03:33:26.345Z,7.27
2018-09-12T03:35:54.733Z,9.17
2018-09-12T03:38:23.184Z,10.33
2018-09-12T03:40:51.631Z,6.23
2018-09-12T03:43:20.048Z,9.73
2018-09-12T03:45:48.447Z,6.33
2018-09-12T03:48:16.868Z,8.97
2018-09-12T03:50:45.278Z,8.37
2018-09-12T03:53:13.761Z,8.23
2018-09-12T03:55:42.250Z,7.33
2018-09-12T03:58:10.667Z,9.60
2018-09-12T04:00:39.185Z,9.47
2018-09-12T04:03:07.629Z,8.07
2018-09-12T04:05:36.008Z,6.47
2018-09-12T04:08:04.493Z,8.90
2018-09-12T04:10:32.939Z,7.67
2018-09-12T04:13:01.376Z,8.60
2018-09-12T04:15:29.804Z,7.13
2018-09-12T04:17:58.192Z,8.70
2018-09-12T04:20:26.702Z,7.77
2018-09-12T04:22:55.103Z,9.80
2018-09-12T04:25:23.533Z,7.13
2018-09-12T04:27:51.988Z,7.43
2018-09-12T04:30:20.458Z,9.23
2018-09-12T04:32:48.970Z,9.10
2018-09-12T04:35:17.395Z,10.70
2018-09-12T04:37:45.800Z,6.87
2018-09-12T04:40:14.239Z,7.87
2018-09-12T04:42:42.668Z,9.93
2018-09-12T04:45:11.033Z,8.00
2018-09-12T04:47:39.473Z,9.07
2018-09-12T04:50:07.968Z,6.43
2018-09-12T04:52:36.369Z,7.20
2018-09-12T04:55:04.794Z,9.70
2018-09-12T04:57:33.177Z,8.17
2018-09-12T05:00:01.597Z,8.20
2018-09-12T05:02:30.000Z,8.00
2018-09-12T05:04:58.413Z,7.73
2018-09-12T05:07:27.256Z,13.40
2018-09-12T05:09:55.887Z,11.57
2018-09-12T05:12:24.310Z,8.03
2018-09-12T05:14:52.744Z,11.00
2018-09-12T05:17:21.169Z,7.87
2018-09-12T05:19:49.553Z,8.10
2018-09-12T05:22:17.953Z,8.33
2018-09-12T05:24:46.372Z,9.50
2018-09-12T05:27:14.832Z,8.67
2018-09-12T05:29:43.252Z,8.70
2018-09-12T05:32:11.910Z,10.70
2018-09-12T05:34:40.289Z,9.13
2018-09-12T05:37:08.676Z,8.17
2018-09-12T05:39:37.109Z,10.93
2018-09-12T05:42:05.653Z,11.17
2018-09-12T05:44:34.060Z,13.40
2018-09-12T05:47:02.477Z,11.77
2018-09-12T05:49:30.945Z,11.73
2018-09-12T05:51:59.373Z,11.53
2018-09-12T05:54:27.795Z,15.90
2018-09-12T05:56:56.176Z,10.93
2018-09-12T05:59:24.573Z,8.03
2018-09-12T06:01:52.981Z,8.80
2018-09-12T06:04:21.519Z,11.13
2018-09-12T06:06:49.983Z,12.97
2018-09-12T06:09:18.389Z,9.97
2018-09-12T06:11:46.783Z,10.07
2018-09-12T06:14:15.253Z,8.57
2018-09-12T06:16:43.589Z,9.57
2018-09-12T06:19:11.988Z,8.70
2018-09-12T06:21:40.384Z,9.00
2018-09-12T06:24:09.101Z,15.97
2018-09-12T06:26:37.548Z,9.70
2018-09-12T06:29:06.112Z,12.43
2018-09-12T06:31:34.507Z,10.67
2018-09-12T06:34:02.911Z,12.67
2018-09-12T06:36:31.289Z,10.20
2018-09-12T06:38:59.726Z,10.07
2018-09-12T06:41:28.170Z,10.07
2018-09-12T06:43:56.610Z,9.13
2018-09-12T06:46:25.078Z,11.83
2018-09-12T06:48:53.484Z,11.67
2018-09-12T06:51:22.216Z,7.80
2018-09-12T06:53:50.579Z,12.00
2018-09-12T06:56:19.025Z,9.37
2018-09-12T06:58:47.421Z,10.67
2018-09-12T07:01:15.869Z,8.17
2018-09-12T07:03:44.284Z,8.73
2018-09-12T07:06:12.756Z,9.73
2018-09-12T07:08:41.208Z,9.73
2018-09-12T07:11:09.664Z,9.03
2018-09-12T07:13:38.057Z,8.07
2018-09-12T07:16:06.450Z,7.40
2018-09-12T07:18:34.912Z,8.80
2018-09-12T07:21:03.449Z,7.33
2018-09-12T07:23:31.957Z,18.87
2018-09-12T07:26:00.363Z,14.73
2018-09-12T07:28:28.779Z,9.17
2018-09-12T07:30:57.196Z,9.90
2018-09-12T07:33:25.588Z,9.07
2018-09-12T07:35:54.015Z,7.53
2018-09-12T07:38:22.410Z,8.67
2018-09-12T07:40:51.033Z,6.93
2018-09-12T07:43:19.448Z,6.93
2018-09-12T07:45:47.861Z,7.07
2018-09-12T07:48:16.256Z,8.50
2018-09-12T07:50:47.955Z,10.27
2018-09-12T07:53:17.084Z,7.87
2018-09-12T07:55:45.501Z,10.40
2018-09-12T07:58:13.889Z,7.63
2018-09-12T08:00:42.329Z,9.83
2018-09-12T08:03:10.880Z,6.20
2018-09-12T08:05:39.389Z,8.57
2018-09-12T08:08:07.834Z,10.47
2018-09-12T08:10:36.271Z,6.23
2018-09-12T08:13:04.732Z,7.80
2018-09-12T08:15:33.154Z,7.13
2018-09-12T08:18:01.570Z,8.57
2018-09-12T08:20:29.977Z,13.73
2018-09-12T08:22:58.397Z,7.23
2018-09-12T08:25:26.853Z,6.70
2018-09-12T08:27:55.245Z,8.37
2018-09-12T08:30:23.740Z,5.97
2018-09-12T08:32:52.146Z,6.13
2018-09-12T08:35:20.540Z,7.00
2018-09-12T08:37:48.937Z,6.50
2018-09-12T08:40:17.356Z,8.83
2018-09-12T08:42:45.912Z,6.97
2018-09-12T08:45:14.298Z,7.43
2018-09-12T08:47:42.769Z,8.10
2018-09-12T08:50:11.140Z,8.30
2018-09-12T08:52:39.688Z,8.73
2018-09-12T08:55:08.128Z,8.30
2018-09-12T08:57:36.596Z,6.03
2018-09-12T09:00:05.705Z,7.13
2018-09-12T09:02:34.126Z,7.57
2018-09-12T09:05:02.624Z,8.00
2018-09-12T09:07:31.085Z,8.70
2018-09-12T09:09:59.503Z,9.63
2018-09-12T09:12:27.904Z,10.27
2018-09-12T09:14:56.673Z,8.37
2018-09-12T09:17:25.205Z,9.73
2018-09-12T09:19:53.577Z,11.27
2018-09-12T09:22:21.983Z,10.27
2018-09-12T09:24:50.432Z,9.53
2018-09-12T09:27:18.812Z,9.37
2018-09-12T09:29:47.212Z,8.80
2018-09-12T09:32:15.621Z,8.67
2018-09-12T09:34:44.012Z,8.90
2018-09-12T09:37:12.451Z,9.00
2018-09-12T09:39:40.861Z,8.83
2018-09-12T09:42:09.306Z,9.00
2018-09-12T09:44:37.740Z,8.00
2018-09-12T09:47:06.161Z,10.83
2018-09-12T09:49:34.654Z,6.33
2018-09-12T09:52:03.065Z,8.80
2018-09-12T09:54:31.526Z,7.63
2018-09-12T09:56:59.902Z,8.00
2018-09-12T09:59:28.389Z,8.67
2018-09-12T10:02:02.092Z,7.03
2018-09-12T10:04:35.821Z,8.37
2018-09-12T10:07:09.504Z,8.50
2018-09-12T10:09:37.966Z,6.73
2018-09-12T10:12:06.411Z,6.73
2018-09-12T10:14:34.824Z,8.43
2018-09-12T10:17:03.299Z,5.37
2018-09-12T10:19:31.684Z,8.73
2018-09-12T10:22:00.128Z,7.07
2018-09-12T10:24:28.535Z,5.93
2018-09-12T10:26:56.964Z,4.93
2018-09-12T10:29:25.339Z,5.27
2018-09-12T10:31:53.836Z,8.47
2018-09-12T10:34:22.233Z,5.93
2018-09-12T10:36:50.953Z,6.43
2018-09-12T10:39:19.450Z,5.97
2018-09-12T10:41:48.017Z,7.13
2018-09-12T10:44:16.431Z,5.40
2018-09-12T10:46:44.851Z,5.50
2018-09-12T10:49:13.232Z,4.10
2018-09-12T10:51:41.656Z,6.03
2018-09-12T10:54:10.012Z,4.97
2018-09-12T10:56:38.426Z,7.57
2018-09-12T10:59:06.895Z,6.03
2018-09-12T11:01:35.258Z,6.23
2018-09-12T11:04:03.660Z,5.67
2018-09-12T11:06:32.068Z,5.57
2018-09-12T11:09:00.476Z,7.20
2018-09-12T11:11:28.900Z,4.97
2018-09-12T11:13:57.485Z,6.10
2018-09-12T11:16:25.910Z,8.97
2018-09-12T11:18:54.563Z,7.47
2018-09-12T11:21:23.004Z,7.10
2018-09-12T11:23:51.417Z,5.53
2018-09-12T11:26:19.833Z,6.10
2018-09-12T11:28:48.397Z,7.33
2018-09-12T11:31:16.798Z,5.90
2018-09-12T11:33:45.205Z,5.33
2018-09-12T11:36:13.691Z,5.60
2018-09-12T11:38:42.104Z,5.77
2018-09-12T11:41:10.536Z,5.37
2018-09-12T11:43:38.994Z,4.87
2018-09-12T11:46:07.672Z,6.50
2018-09-12T11:48:36.072Z,7.33
2018-09-12T11:51:04.477Z,7.17
2018-09-12T11:53:32.940Z,4.53
2018-09-12T11:56:01.370Z,5.10
2018-09-12T11:58:29.805Z,5.80
2018-09-12T12:00:58.582Z,8.80
2018-09-12T12:03:27.113Z,6.60
2018-09-12T12:05:55.567Z,6.30
2018-09-12T12:08:23.948Z,7.80
2018-09-12T12:10:52.410Z,4.80
2018-09-12T12:13:20.802Z,4.53
2018-09-12T12:15:49.231Z,5.50
2018-09-12T12:18:17.659Z,6.57
2018-09-12T12:20:46.115Z,5.47
2018-09-12T12:23:14.638Z,5.47
2018-09-12T12:25:43.020Z,8.13
2018-09-12T12:28:11.423Z,4.83
2018-09-12T12:30:39.869Z,6.53
2018-09-12T12:33:08.288Z,6.87
2018-09-12T12:35:36.907Z,5.10
2018-09-12T12:38:05.573Z,9.07
2018-09-12T12:40:34.009Z,4.90
2018-09-12T12:43:02.431Z,6.47
2018-09-12T12:45:30.897Z,5.67
2018-09-12T12:47:59.297Z,9.27
2018-09-12T12:50:27.749Z,5.83
2018-09-12T12:52:56.264Z,6.67
2018-09-12T12:55:24.685Z,5.53
2018-09-12T12:57:53.113Z,5.43
2018-09-12T13:00:21.581Z,5.10
2018-09-12T13:02:49.968Z,4.83
2018-09-12T13:05:18.403Z,5.40
2018-09-12T13:07:46.786Z,7.03
2018-09-12T13:10:15.213Z,8.77
2018-09-12T13:12:43.629Z,5.80
2018-09-12T13:15:12.033Z,7.20
2018-09-12T13:17:40.473Z,8.47
2018-09-12T13:20:08.957Z,9.57
2018-09-12T13:22:37.347Z,7.07
2018-09-12T13:25:06.084Z,4.60
2018-09-12T13:27:34.551Z,4.97
2018-09-12T13:30:03.009Z,4.93
2018-09-12T13:32:32.068Z,4.20
2018-09-12T13:35:00.535Z,8.60
2018-09-12T13:37:28.980Z,6.03
2018-09-12T13:39:57.369Z,4.93
2018-09-12T13:42:25.752Z,5.47
2018-09-12T13:44:54.358Z,7.27
2018-09-12T13:47:22.748Z,6.50
2018-09-12T13:49:51.272Z,4.63
2018-09-12T13:52:19.680Z,5.77
2018-09-12T13:54:48.080Z,6.20
2018-09-12T13:57:16.464Z,6.90
2018-09-12T13:59:44.920Z,5.90
2018-09-12T14:02:13.315Z,5.87
2018-09-12T14:04:41.713Z,5.53
2018-09-12T14:07:10.233Z,6.93
2018-09-12T14:09:38.666Z,8.07
2018-09-12T14:12:07.085Z,4.87
2018-09-12T14:14:35.501Z,5.47
2018-09-12T14:17:03.978Z,6.00
2018-09-12T14:19:32.542Z,6.30
2018-09-12T14:22:00.968Z,7.77
2018-09-12T14:24:29.425Z,7.00
2018-09-12T14:26:57.859Z,6.70
2018-09-12T14:29:26.268Z,7.47
2018-09-12T14:31:54.801Z,10.93
2018-09-12T14:34:23.289Z,7.57
2018-09-12T14:36:51.802Z,8.30
2018-09-12T14:39:20.373Z,12.70
2018-09-12T14:41:48.727Z,9.13
2018-09-12T14:44:17.124Z,10.50
2018-09-12T14:46:45.530Z,9.83
2018-09-12T14:49:13.918Z,13.47
2018-09-12T14:51:42.333Z,9.67
2018-09-12T14:54:10.926Z,10.33
2018-09-12T14:56:39.346Z,14.43
2018-09-12T14:59:07.856Z,13.17
2018-09-12T15:01:36.274Z,13.77
2018-09-12T15:04:04.745Z,12.90
2018-09-12T15:06:33.249Z,12.83
2018-09-12T15:09:02.210Z,12.07
2018-09-12T15:11:30.609Z,11.23
2018-09-12T15:13:59.180Z,19.93
2018-09-12T15:16:27.966Z,15.63
2018-09-12T15:18:56.618Z,12.83
2018-09-12T15:21:25.097Z,14.40
2018-09-12T15:23:53.492Z,12.90
2018-09-12T15:26:22.017Z,11.37
2018-09-12T15:28:50.569Z,12.70
2018-09-12T15:31:19.165Z,14.17
2018-09-12T15:33:47.776Z,15.23
2018-09-12T15:36:16.158Z,14.30
2018-09-12T15:38:44.659Z,15.30
2018-09-12T15:41:13.197Z,13.57
2018-09-12T15:43:41.766Z,14.27
2018-09-12T15:46:10.223Z,14.57
2018-09-12T15:48:38.799Z,13.63
2018-09-12T15:51:07.261Z,15.87
2018-09-12T15:53:35.797Z,18.87
2018-09-12T15:56:04.460Z,17.03
2018-09-12T15:58:33.044Z,19.87
2018-09-12T16:01:01.745Z,18.37
2018-09-12T16:03:30.260Z,17.13
2018-09-12T16:05:58.714Z,17.93
2018-09-12T16:08:27.225Z,16.17
2018-09-12T16:10:55.706Z,16.93
2018-09-12T16:13:24.129Z,16.47
2018-09-12T16:15:52.608Z,16.67
2018-09-12T16:18:21.050Z,19.33
2018-09-12T16:20:49.640Z,22.63
2018-09-12T16:23:18.024Z,22.77
2018-09-12T16:25:46.696Z,22.93
2018-09-12T16:28:15.312Z,24.67
2018-09-12T16:30:43.901Z,23.83
2018-09-12T16:33:12.559Z,23.90
2018-09-12T16:35:41.110Z,26.60
2018-09-12T16:38:09.689Z,28.27
2018-09-12T16:40:38.172Z,26.00
2018-09-12T16:43:06.892Z,27.00
2018-09-12T16:45:35.364Z,27.43
2018-09-12T16:48:03.875Z,28.47
2018-09-12T16:50:32.519Z,28.90
2018-09-12T16:53:01.182Z,29.73
2018-09-12T16:55:29.656Z,33.80
2018-09-12T16:57:58.147Z,33.37
2018-09-12T17:00:26.624Z,31.90
2018-09-12T17:02:55.097Z,31.77
2018-09-12T17:05:23.532Z,39.20
2018-09-12T17:07:52.132Z,35.13
2018-09-12T17:10:20.560Z,32.33
2018-09-12T17:12:49.042Z,30.03
2018-09-12T17:15:17.456Z,34.63
2018-09-12T17:17:45.897Z,36.20
2018-09-12T17:20:14.409Z,32.77
2018-09-12T17:22:43.112Z,30.70
2018-09-12T17:25:11.690Z,29.03
2018-09-12T17:27:40.200Z,29.57
2018-09-12T17:30:08.725Z,26.87
2018-09-12T17:32:37.193Z,25.00
2018-09-12T17:35:05.716Z,28.47
2018-09-12T17:37:34.189Z,25.37
2018-09-12T17:40:02.681Z,26.23
2018-09-12T17:42:31.144Z,29.00
2018-09-12T17:44:59.615Z,24.50
2018-09-12T17:47:28.236Z,20.90
2018-09-12T17:49:56.720Z,21.37
2018-09-12T17:52:25.183Z,24.10
2018-09-12T17:54:53.629Z,23.10
2018-09-12T17:57:22.080Z,24.43
2018-09-12T17:59:50.673Z,19.47
2018-09-12T18:02:19.164Z,22.70
2018-09-12T18:04:47.781Z,20.63
2018-09-12T18:07:16.272Z,19.53
2018-09-12T18:09:44.697Z,17.00
2018-09-12T18:12:13.138Z,18.40
2018-09-12T18:14:41.592Z,17.90
2018-09-12T18:17:10.139Z,22.67
2018-09-12T18:19:38.597Z,18.40
2018-09-12T18:22:07.161Z,19.03
2018-09-12T18:24:35.769Z,20.67
2018-09-12T18:27:04.448Z,21.93
2018-09-12T18:29:32.954Z,17.53
2018-09-12T18:32:01.433Z,20.07
2018-09-12T18:34:29.905Z,18.73
2018-09-12T18:36:58.485Z,18.50
2018-09-12T18:39:27.160Z,19.37
2018-09-12T18:41:55.629Z,20.40
2018-09-12T18:44:24.251Z,19.27
2018-09-12T18:46:52.882Z,16.40
2018-09-12T18:49:21.549Z,18.57
2018-09-12T18:51:50.142Z,17.70
2018-09-12T18:54:18.558Z,18.87
2018-09-12T18:56:47.031Z,19.10
2018-09-12T18:59:15.484Z,14.47
2018-09-12T19:01:44.007Z,17.83
2018-09-12T19:04:12.420Z,17.43
2018-09-12T19:06:41.097Z,15.67
2018-09-12T19:09:11.021Z,16.00
2018-09-12T19:11:39.487Z,16.23
2018-09-12T19:14:08.415Z,16.73
2018-09-12T19:16:37.725Z,16.00
2018-09-12T19:19:06.360Z,15.90
2018-09-12T19:21:35.969Z,16.67
2018-09-12T19:24:04.698Z,15.73
2018-09-12T19:26:33.371Z,16.40
2018-09-12T19:29:01.824Z,15.40
2018-09-12T19:31:30.316Z,20.03
2018-09-12T19:33:58.935Z,19.13
2018-09-12T19:36:27.343Z,19.30
2018-09-12T19:38:55.841Z,17.17
2018-09-12T19:41:24.264Z,19.30
2018-09-12T19:43:52.707Z,18.23
2018-09-12T19:46:21.172Z,17.93
2018-09-12T19:48:49.607Z,18.83
2018-09-12T19:51:18.241Z,21.17
2018-09-12T19:53:46.843Z,21.13
2018-09-12T19:56:15.919Z,20.47
2018-09-12T19:58:45.234Z,21.07
2018-09-12T20:01:14.088Z,21.00
2018-09-12T20:03:42.759Z,23.17
2018-09-12T20:06:11.869Z,19.60
2018-09-12T20:08:40.521Z,23.23
2018-09-12T20:11:08.909Z,19.97
2018-09-12T20:13:37.357Z,21.87
2018-09-12T20:16:05.859Z,20.27
2018-09-12T20:18:34.381Z,24.27
2018-09-12T20:21:02.818Z,23.40
2018-09-12T20:23:31.314Z,23.37
2018-09-12T20:25:59.814Z,20.47
2018-09-12T20:28:28.500Z,22.17
2018-09-12T20:30:56.991Z,23.93
2018-09-12T20:33:25.526Z,23.23
2018-09-12T20:35:53.964Z,24.23
2018-09-12T20:38:22.379Z,22.03
2018-09-12T20:40:51.038Z,19.43
2018-09-12T20:43:19.793Z,22.93
2018-09-12T20:45:48.389Z,21.17
2018-09-12T20:48:16.858Z,19.57
2018-09-12T20:50:45.398Z,21.47
2018-09-12T20:53:13.842Z,20.10
2018-09-12T20:55:42.308Z,22.93
2018-09-12T20:58:10.749Z,21.03
2018-09-12T21:00:39.242Z,21.47
2018-09-12T21:03:07.877Z,20.07
2018-09-12T21:05:36.385Z,19.30
2018-09-12T21:08:04.890Z,22.37
2018-09-12T21:10:33.332Z,17.17
2018-09-12T21:13:01.851Z,19.93
2018-09-12T21:15:30.495Z,22.60
2018-09-12T21:17:58.993Z,21.63
2018-09-12T21:20:27.491Z,21.50
2018-09-12T21:22:55.988Z,17.63
2018-09-12T21:25:24.744Z,21.07
2018-09-12T21:27:53.226Z,20.63
2018-09-12T21:30:22.074Z,20.10
2018-09-12T21:32:50.452Z,19.63
2018-09-12T21:35:18.967Z,20.50
2018-09-12T21:37:47.424Z,18.77
2018-09-12T21:40:15.868Z,21.80
2018-09-12T21:42:44.416Z,21.47
2018-09-12T21:45:12.880Z,22.43
2018-09-12T21:47:41.438Z,21.37
2018-09-12T21:50:09.870Z,22.87
2018-09-12T21:52:38.312Z,20.27
2018-09-12T21:55:06.737Z,20.27
2018-09-12T21:57:35.518Z,19.80
2018-09-12T22:00:05.117Z,19.27
2018-09-12T22:02:33.822Z,18.60
2018-09-12T22:05:02.302Z,19.90
2018-09-12T22:07:30.964Z,19.27
2018-09-12T22:09:59.836Z,18.90
2018-09-12T22:12:28.249Z,19.30
2018-09-12T22:14:56.853Z,18.33
2018-09-12T22:17:25.322Z,18.13
2018-09-12T22:19:53.756Z,16.97
2018-09-12T22:22:22.193Z,16.30
2018-09-12T22:24:50.630Z,15.10
2018-09-12T22:27:19.076Z,16.77
2018-09-12T22:29:48.465Z,16.33
2018-09-12T22:32:16.885Z,15.20
2018-09-12T22:34:45.284Z,16.67
2018-09-12T22:37:13.688Z,14.77
2018-09-12T22:39:42.142Z,18.40
2018-09-12T22:42:10.556Z,17.50
2018-09-12T22:44:39.316Z,17.43
2018-09-12T22:47:07.883Z,16.97
2018-09-12T22:49:36.616Z,14.60
2018-09-12T22:52:05.103Z,15.27
2018-09-12T22:54:33.521Z,15.37
2018-09-12T22:57:01.939Z,15.70
2018-09-12T22:59:30.342Z,14.10
2018-09-12T23:01:58.860Z,13.80
2018-09-12T23:04:27.264Z,14.57
2018-09-12T23:06:55.690Z,14.93
2018-09-12T23:09:24.108Z,12.50
2018-09-12T23:11:52.652Z,15.20
2018-09-12T23:14:21.048Z,13.00
2018-09-12T23:16:49.465Z,12.40
2018-09-12T23:19:17.858Z,12.83
2018-09-12T23:21:46.341Z,15.17
2018-09-12T23:24:14.899Z,12.70
2018-09-12T23:26:44.267Z,13.57
2018-09-12T23:29:12.869Z,13.23
2018-09-12T23:31:41.428Z,14.10
2018-09-12T23:34:09.824Z,12.63
2018-09-12T23:36:38.350Z,13.03
2018-09-12T23:39:09.601Z,14.43
2018-09-12T23:41:38.094Z,15.80
2018-09-12T23:44:06.583Z,17.93
2018-09-12T23:46:35.040Z,16.10
2018-09-12T23:49:03.554Z,18.50
2018-09-12T23:51:31.947Z,17.57
2018-09-12T23:54:00.359Z,19.40
2018-09-12T23:56:28.733Z,16.83
2018-09-12T23:58:57.189Z,16.73
